Time;durP1;ratioP1;P1;durP2;ratioP2;P2;SDS_P1;SDS_P2;PMS_P1;PMS_P2;Temp;Humidity;BMP_temperature;BMP_pressure;BME280_temperature;BME280_humidity;BME280_pressure;Samples;Min_cycle;Max_cycle;Signal;HPM_P1;HPM_P2
2022/05/25 00:01:20;;;;;;;;;;;;;;;24.44;21.04;100432.63;5093269;28;19920;-70
2022/05/25 00:03:45;;;;;;;;;;;;;;;24.45;21.06;100426.06;5094269;28;19970;-70
2022/05/25 00:06:10;;;;;;;;;;;;;;;24.44;21.20;100429.06;5094470;28;20350;-70
2022/05/25 00:08:36;;;;;;;;;;;;;;;24.43;21.15;100424.72;5094301;28;19969;-70
2022/05/25 00:11:01;;;;;;;;;;;;;;;24.43;21.13;100428.25;5093902;28;20014;-70
2022/05/25 00:13:26;;;;;;;;;;;;;;;24.43;21.09;100425.53;5094221;28;19949;-70
2022/05/25 00:15:52;;;;;;;;;;;;;;;24.41;21.09;100427.72;5093971;28;20358;-70
2022/05/25 00:18:17;;;;;;;;;;;;;;;24.41;21.09;100425.00;5094198;28;19916;-70
2022/05/25 00:20:42;;;;;;;;;;;;;;;24.42;20.74;100423.06;5093767;28;20460;-70
2022/05/25 00:23:07;;;;;;;;;;;;;;;24.42;20.96;100428.53;5093798;28;19939;-70
2022/05/25 00:25:34;;;;;;;;;;;;;;;24.40;20.96;100426.06;5093545;28;20419;-70
2022/05/25 00:28:00;;;;;;;;;;;;;;;24.40;21.01;100417.06;5094145;28;19926;-70
2022/05/25 00:30:25;;;;;;;;;;;;;;;24.39;21.04;100421.72;5093657;28;19999;-70
2022/05/25 00:32:51;;;;;;;;;;;;;;;24.41;20.75;100424.19;5094048;28;19970;-70
2022/05/25 00:35:17;;;;;;;;;;;;;;;24.41;21.01;100426.91;5093711;28;20393;-70
2022/05/25 00:37:42;;;;;;;;;;;;;;;24.40;20.95;100420.59;5093707;28;20389;-70
2022/05/25 00:40:09;;;;;;;;;;;;;;;24.39;20.84;100416.25;5094638;28;19920;-70
2022/05/25 00:42:35;;;;;;;;;;;;;;;24.38;20.83;100426.34;5096598;28;19917;-70
2022/05/25 00:45:00;;;;;;;;;;;;;;;24.39;20.72;100416.25;5098094;28;20342;-70
2022/05/25 00:47:26;;;;;;;;;;;;;;;24.38;20.73;100423.63;5097967;28;20351;-70
2022/05/25 00:49:51;;;;;;;;;;;;;;;24.38;20.66;100422.81;5116768;28;19972;-70
2022/05/25 00:52:16;;;;;;;;;;;;;;;24.39;20.64;100421.72;5118206;28;19916;-70
2022/05/25 00:54:51;;;;;;;;;;;;;;;24.37;20.60;100421.19;5117898;28;19927;-70
2022/05/25 00:57:18;;;;;;;;;;;;;;;24.37;20.55;100419.28;5116833;28;19922;-70
2022/05/25 00:59:55;;;;;;;;;;;;;;;24.37;20.88;100421.19;5116895;28;20277;-70
2022/05/25 01:02:20;;;;;;;;;;;;;;;24.35;20.54;100415.16;5117739;28;20370;-70
2022/05/25 01:04:47;;;;;;;;;;;;;;;24.36;20.66;100425.00;5117956;28;19930;-70
2022/05/25 01:07:18;;;;;;;;;;;;;;;24.35;20.63;100424.19;5118108;28;19980;-70
2022/05/25 01:09:43;;;;;;;;;;;;;;;24.35;20.44;100423.34;5117824;28;20289;-70
2022/05/25 01:12:28;;;;;;;;;;;;;;;24.36;20.46;100430.47;5117995;28;19916;-70
2022/05/25 01:15:03;;;;;;;;;;;;;;;24.34;20.27;100428.00;5117969;28;20022;-70
2022/05/25 01:17:43;;;;;;;;;;;;;;;24.33;20.41;100426.38;5116403;28;19922;-70
2022/05/25 01:20:28;;;;;;;;;;;;;;;24.33;20.52;100428.28;5117841;28;20076;-70
2022/05/25 01:22:59;;;;;;;;;;;;;;;24.33;20.48;100425.56;5117636;28;20002;-70
2022/05/25 01:25:30;;;;;;;;;;;;;;;24.32;20.46;100429.41;5117356;28;19943;-70
2022/05/25 01:27:56;;;;;;;;;;;;;;;24.32;20.33;100423.94;5117329;28;20016;-70
2022/05/25 01:30:21;;;;;;;;;;;;;;;24.30;20.23;100418.75;5116445;28;20064;-70
2022/05/25 01:32:53;;;;;;;;;;;;;;;24.31;20.45;100414.09;5117663;28;20366;-70
2022/05/25 01:35:30;;;;;;;;;;;;;;;24.30;20.13;100410.56;5116126;28;19923;-70
2022/05/25 01:38:14;;;;;;;;;;;;;;;24.30;20.31;100417.91;5117661;28;20004;-70
2022/05/25 01:40:43;;;;;;;;;;;;;;;24.31;20.24;100416.84;5117349;28;19959;-70
2022/05/25 01:43:09;;;;;;;;;;;;;;;24.30;20.31;100404.25;5117408;28;19919;-70
2022/05/25 01:45:37;;;;;;;;;;;;;;;24.30;20.19;100407.84;5116114;28;19922;-70
2022/05/25 01:48:03;;;;;;;;;;;;;;;24.30;20.37;100398.81;5113950;28;19920;-70
2022/05/25 01:50:32;;;;;;;;;;;;;;;24.29;20.23;100408.91;5097484;28;19916;-70
2022/05/25 01:52:57;;;;;;;;;;;;;;;24.30;20.39;100405.09;5078096;28;19960;-70
2022/05/25 01:55:26;;;;;;;;;;;;;;;24.30;20.22;100409.72;5096749;28;19944;-70
2022/05/25 01:57:56;;;;;;;;;;;;;;;24.28;20.30;100406.47;5079655;28;20021;-70
2022/05/25 02:00:41;;;;;;;;;;;;;;;24.28;20.39;100414.66;5079763;28;19975;-70
2022/05/25 02:06:02;;;;;;;;;;;;;;;24.27;20.29;100410.31;5097828;28;20383;-70
2022/05/25 02:08:41;;;;;;;;;;;;;;;24.26;20.25;100408.66;5098057;28;19938;-70
2022/05/25 02:11:06;;;;;;;;;;;;;;;24.24;20.30;100408.94;5098982;28;20263;-70
2022/05/25 02:13:38;;;;;;;;;;;;;;;24.26;20.25;100411.38;5098509;28;19959;-70
2022/05/25 02:16:17;;;;;;;;;;;;;;;24.24;20.32;100416.31;5096421;28;19958;-69
2022/05/25 02:18:44;;;;;;;;;;;;;;;24.24;20.37;100410.84;5096355;28;20296;-69
2022/05/25 02:21:14;;;;;;;;;;;;;;;24.23;20.41;100404.56;5096371;28;19924;-69
2022/05/25 02:23:46;;;;;;;;;;;;;;;24.24;20.41;100403.47;5095863;28;19924;-69
2022/05/25 02:26:12;;;;;;;;;;;;;;;24.25;20.38;100404.28;5078158;28;19923;-69
2022/05/25 02:28:42;;;;;;;;;;;;;;;24.26;20.32;100419.59;5096351;28;19916;-71
2022/05/25 02:31:08;;;;;;;;;;;;;;;24.24;20.39;100410.84;5078110;28;19955;-70
2022/05/25 02:33:35;;;;;;;;;;;;;;;24.24;20.40;100410.84;5095993;28;19916;-70
2022/05/25 02:36:00;;;;;;;;;;;;;;;24.23;20.45;100409.22;5077817;28;19965;-70
2022/05/25 02:38:25;;;;;;;;;;;;;;;24.23;20.54;100415.47;5077391;28;20022;-70
2022/05/25 02:40:50;;;;;;;;;;;;;;;24.23;20.44;100411.94;5077505;28;19923;-70
2022/05/25 02:43:16;;;;;;;;;;;;;;;24.23;20.37;100414.66;5095803;28;19916;-70
2022/05/25 02:45:41;;;;;;;;;;;;;;;24.23;20.30;100417.41;5095633;28;20377;-70
2022/05/25 02:48:06;;;;;;;;;;;;;;;24.22;20.34;100413.88;5095461;28;19916;-70
2022/05/25 02:50:31;;;;;;;;;;;;;;;24.22;20.40;100413.88;5095735;28;19947;-70
2022/05/25 02:52:57;;;;;;;;;;;;;;;24.22;20.51;100418.50;5095785;28;20324;-70
2022/05/25 02:55:23;;;;;;;;;;;;;;;24.22;20.63;100413.06;5095828;28;19923;-70
2022/05/25 02:57:48;;;;;;;;;;;;;;;24.23;20.67;100420.13;5095501;28;20373;-70
2022/05/25 03:00:14;;;;;;;;;;;;;;;24.22;20.65;100426.72;5077387;28;20332;-70
2022/05/25 03:02:39;;;;;;;;;;;;;;;24.24;20.44;100416.31;5077330;28;20326;-70
2022/05/25 03:05:04;;;;;;;;;;;;;;;24.26;20.39;100419.59;5094443;28;20278;-69
2022/05/25 03:07:30;;;;;;;;;;;;;;;24.28;20.43;100418.19;5095516;28;20286;-69
2022/05/25 03:09:55;;;;;;;;;;;;;;;24.31;20.61;100422.28;5095374;28;20282;-69
2022/05/25 03:12:20;;;;;;;;;;;;;;;24.33;20.56;100414.63;5095303;28;20316;-69
2022/05/25 03:14:46;;;;;;;;;;;;;;;24.36;20.40;100414.09;5095572;28;20358;-70
2022/05/25 03:17:14;;;;;;;;;;;;;;;24.39;20.43;100419.00;5095485;28;19920;-69
2022/05/25 03:19:42;;;;;;;;;;;;;;;24.42;20.22;100420.34;5095449;28;19927;-69
2022/05/25 03:22:08;;;;;;;;;;;;;;;24.44;19.96;100418.97;5095738;28;19923;-69
2022/05/25 03:24:33;;;;;;;;;;;;;;;24.46;19.92;100424.16;5094466;28;20258;-69
2022/05/25 03:26:58;;;;;;;;;;;;;;;24.51;19.91;100413.22;5094880;28;19916;-70
2022/05/25 03:29:24;;;;;;;;;;;;;;;24.55;19.75;100415.13;5094977;28;19916;-69
2022/05/25 03:31:50;;;;;;;;;;;;;;;24.56;19.66;100415.94;5094547;28;19916;-69
2022/05/25 03:34:17;;;;;;;;;;;;;;;24.58;19.40;100415.66;5094474;28;19916;-69
2022/05/25 03:36:42;;;;;;;;;;;;;;;24.60;19.44;100411.53;5094619;28;19924;-71
2022/05/25 03:39:07;;;;;;;;;;;;;;;24.64;19.32;100411.81;5094353;28;19974;-70
2022/05/25 03:41:33;;;;;;;;;;;;;;;24.65;19.03;100411.53;5094367;28;19920;-70
2022/05/25 03:43:58;;;;;;;;;;;;;;;24.68;19.03;100421.06;5094770;28;19916;-70
2022/05/25 03:46:23;;;;;;;;;;;;;;;24.71;18.87;100420.50;5094435;28;20319;-69
2022/05/25 03:48:48;;;;;;;;;;;;;;;24.73;18.80;100421.88;5094095;28;19924;-70
2022/05/25 03:51:14;;;;;;;;;;;;;;;24.75;18.80;100413.41;5094040;28;19924;-70
2022/05/25 03:53:40;;;;;;;;;;;;;;;24.77;18.95;100419.38;5094186;28;19928;-69
2022/05/25 03:56:05;;;;;;;;;;;;;;;24.78;18.81;100418.28;5094323;28;20354;-69
2022/05/25 03:58:31;;;;;;;;;;;;;;;24.80;18.67;100413.38;5094320;28;19959;-69
2022/05/25 04:00:56;;;;;;;;;;;;;;;24.81;18.84;100414.97;5093789;28;19916;-70
2022/05/25 04:03:21;;;;;;;;;;;;;;;24.82;18.74;100405.69;5094368;28;20090;-69
2022/05/25 04:05:46;;;;;;;;;;;;;;;24.82;18.68;100402.97;5094204;28;19916;-69
2022/05/25 04:08:12;;;;;;;;;;;;;;;24.86;18.86;100405.94;5094228;28;20359;-70
2022/05/25 04:10:37;;;;;;;;;;;;;;;24.88;18.62;100407.28;5076086;28;19970;-70
2022/05/25 04:13:03;;;;;;;;;;;;;;;24.90;18.69;100410.53;5076209;28;19941;-70
2022/05/25 04:15:29;;;;;;;;;;;;;;;24.92;18.72;100408.38;5093558;28;20363;-69
2022/05/25 04:17:54;;;;;;;;;;;;;;;24.96;18.68;100410.50;5093877;28;20007;-69
2022/05/25 04:20:20;;;;;;;;;;;;;;;24.98;18.46;100409.13;5093490;28;19959;-69
2022/05/25 04:22:45;;;;;;;;;;;;;;;24.99;18.61;100412.69;5093598;28;19917;-70
2022/05/25 04:25:12;;;;;;;;;;;;;;;25.01;18.61;100410.47;5093638;28;19924;-70
2022/05/25 04:27:40;;;;;;;;;;;;;;;25.03;18.48;100405.56;5093357;28;20724;-69
2022/05/25 04:30:06;;;;;;;;;;;;;;;25.03;18.76;100406.38;5093480;28;20282;-70
2022/05/25 04:32:32;;;;;;;;;;;;;;;25.05;18.86;100409.63;5094069;28;19920;-69
2022/05/25 04:34:58;;;;;;;;;;;;;;;25.07;18.60;100401.97;5094226;28;19916;-69
2022/05/25 04:40:08;;;;;;;;;;;;;;;25.09;18.60;100401.69;5094632;28;20400;-69
2022/05/25 04:42:33;;;;;;;;;;;;;;;25.11;18.81;100392.09;5075925;28;19920;-69
2022/05/25 04:45:00;;;;;;;;;;;;;;;25.14;18.78;100400.84;5095007;28;19991;-69
2022/05/25 04:47:29;;;;;;;;;;;;;;;25.14;18.59;100398.91;5095328;28;19916;-71
2022/05/25 04:49:54;;;;;;;;;;;;;;;25.14;18.77;100395.38;5093980;28;19954;-70
2022/05/25 04:52:19;;;;;;;;;;;;;;;25.20;18.90;100405.16;5093866;28;19920;-70
2022/05/25 04:54:45;;;;;;;;;;;;;;;25.22;18.76;100398.31;5094529;28;20362;-70
2022/05/25 04:57:27;;;;;;;;;;;;;;;25.27;18.74;100386.53;5093492;28;20005;-70
2022/05/25 04:59:55;;;;;;;;;;;;;;;25.32;18.93;100391.13;5095968;28;19920;-70
2022/05/25 05:02:28;;;;;;;;;;;;;;;25.35;18.71;100393.31;5097781;28;19916;-71
2022/05/25 05:04:53;;;;;;;;;;;;;;;25.34;19.19;100383.50;5098973;28;20006;-70
2022/05/25 05:07:18;;;;;;;;;;;;;;;25.38;18.79;100384.53;5064951;28;20300;-70
2022/05/25 05:09:44;;;;;;;;;;;;;;;25.38;19.03;100384.53;5097397;28;20011;-69
2022/05/25 05:12:10;;;;;;;;;;;;;;;25.44;18.90;100377.91;5096922;28;20007;-70
2022/05/25 05:14:35;;;;;;;;;;;;;;;25.48;19.04;100377.03;5096467;28;19916;-70
2022/05/25 05:17:01;;;;;;;;;;;;;;;25.53;19.26;100372.66;5098615;28;19927;-71
2022/05/25 05:19:26;;;;;;;;;;;;;;;25.59;18.85;100375.03;5099940;28;20303;-70
2022/05/25 05:21:54;;;;;;;;;;;;;;;25.62;19.10;100374.44;5104681;28;19923;-70
2022/05/25 05:24:19;;;;;;;;;;;;;;;25.64;19.59;100374.16;5103182;28;19920;-69
2022/05/25 05:26:45;;;;;;;;;;;;;;;25.63;19.53;100373.34;5099074;28;19955;-69
2022/05/25 05:29:10;;;;;;;;;;;;;;;25.64;19.53;100371.44;5099357;28;19916;-69
2022/05/25 05:31:35;;;;;;;;;;;;;;;25.72;19.62;100372.72;5080195;28;20282;-69
2022/05/25 05:34:00;;;;;;;;;;;;;;;25.80;19.42;100369.34;5097819;28;19923;-70
2022/05/25 05:36:27;;;;;;;;;;;;;;;25.79;19.47;100367.72;5100608;28;19920;-68
2022/05/25 05:38:52;;;;;;;;;;;;;;;25.81;19.45;100366.31;5100431;28;20413;-70
2022/05/25 05:41:18;;;;;;;;;;;;;;;25.90;19.20;100366.50;5097137;28;19916;-69
2022/05/25 05:43:44;;;;;;;;;;;;;;;25.94;19.13;100362.13;5096483;28;19987;-68
2022/05/25 05:46:09;;;;;;;;;;;;;;;25.92;19.31;100356.06;5098982;28;19928;-68
2022/05/25 05:48:34;;;;;;;;;;;;;;;26.04;18.90;100353.78;5105802;28;19916;-68
2022/05/25 05:51:01;;;;;;;;;;;;;;;26.08;19.02;100353.19;5099422;28;20312;-69
2022/05/25 05:53:26;;;;;;;;;;;;;;;26.07;18.77;100352.38;5101571;28;20359;-69
2022/05/25 05:55:51;;;;;;;;;;;;;;;26.06;18.77;100350.75;5081833;28;19939;-68
2022/05/25 05:58:17;;;;;;;;;;;;;;;26.07;18.74;100346.09;5083594;28;19923;-69
2022/05/25 06:00:43;;;;;;;;;;;;;;;26.08;19.20;100350.44;5097639;28;20326;-70
2022/05/25 06:03:08;;;;;;;;;;;;;;;26.07;18.98;100346.91;5096701;28;19982;-70
2022/05/25 06:05:33;;;;;;;;;;;;;;;26.12;19.00;100343.28;5095832;28;20355;-70
2022/05/25 06:08:09;;;;;;;;;;;;;;;26.13;19.34;100343.00;5077359;28;20015;-70
2022/05/25 06:10:35;;;;;;;;;;;;;;;26.13;18.95;100344.91;5096226;28;19947;-70
2022/05/25 06:13:00;;;;;;;;;;;;;;;26.10;19.09;100343.56;5095699;28;20238;-70
2022/05/25 06:20:53;;;;;;;;;;;;;;;26.16;19.30;100336.91;5095384;28;19924;-70
2022/05/25 06:23:18;;;;;;;;;;;;;;;26.14;19.39;100343.81;5095235;28;19920;-70
2022/05/25 06:25:43;;;;;;;;;;;;;;;26.17;19.27;100345.97;5096258;28;19970;-70
2022/05/25 06:28:09;;;;;;;;;;;;;;;26.18;19.25;100344.84;5095010;28;20277;-70
2022/05/25 06:30:34;;;;;;;;;;;;;;;26.17;19.40;100338.56;5095253;28;19916;-70
2022/05/25 06:32:59;;;;;;;;;;;;;;;26.25;19.48;100331.63;5095366;28;19961;-71
2022/05/25 06:35:24;;;;;;;;;;;;;;;26.24;19.23;100324.50;5095469;28;19917;-68
2022/05/25 06:37:50;;;;;;;;;;;;;;;26.16;19.39;100325.94;5095670;28;19916;-69
2022/05/25 06:40:15;;;;;;;;;;;;;;;26.23;19.24;100322.84;5095414;28;20351;-69
2022/05/25 06:42:41;;;;;;;;;;;;;;;26.25;19.12;100326.16;5095674;28;19916;-69
2022/05/25 06:45:07;;;;;;;;;;;;;;;26.31;19.31;100326.88;5077095;28;19927;-69
2022/05/25 06:47:34;;;;;;;;;;;;;;;26.23;19.24;100320.13;5095407;28;19916;-71
2022/05/25 06:49:59;;;;;;;;;;;;;;;26.26;19.35;100318.72;5094722;28;19916;-70
2022/05/25 06:52:24;;;;;;;;;;;;;;;26.24;19.31;100313.53;5095069;28;19923;-69
2022/05/25 06:54:56;;;;;;;;;;;;;;;26.17;19.38;100318.56;5095323;28;19920;-68
2022/05/25 06:57:21;;;;;;;;;;;;;;;26.24;19.38;100308.06;5094858;28;19942;-69
2022/05/25 06:59:46;;;;;;;;;;;;;;;26.29;19.11;100318.97;5094733;28;19916;-71
2022/05/25 07:02:11;;;;;;;;;;;;;;;26.19;19.62;100313.63;5076332;28;20297;-70
2022/05/25 07:04:37;;;;;;;;;;;;;;;26.28;19.22;100314.56;5094596;28;19961;-70
2022/05/25 07:07:02;;;;;;;;;;;;;;;26.22;19.50;100311.09;5094679;28;19928;-70
2022/05/25 07:09:27;;;;;;;;;;;;;;;26.14;19.63;100305.47;5094289;28;19924;-69
2022/05/25 07:11:53;;;;;;;;;;;;;;;26.07;19.61;100305.81;5094942;28;19916;-69
2022/05/25 07:14:18;;;;;;;;;;;;;;;26.13;19.57;100301.91;5094517;28;20371;-69
2022/05/25 07:16:43;;;;;;;;;;;;;;;26.16;19.51;100300.50;5095089;28;19916;-69
2022/05/25 07:19:09;;;;;;;;;;;;;;;26.11;19.41;100297.81;5095478;28;19920;-70
2022/05/25 07:21:34;;;;;;;;;;;;;;;25.92;19.76;100293.09;5094700;28;20388;-69
2022/05/25 07:24:00;;;;;;;;;;;;;;;26.03;19.64;100291.91;5094238;28;19921;-70
2022/05/25 07:26:26;;;;;;;;;;;;;;;26.11;19.55;100292.34;5093879;28;20374;-70
2022/05/25 07:28:51;;;;;;;;;;;;;;;26.22;19.45;100285.63;5075923;28;20002;-70
2022/05/25 07:31:30;;;;;;;;;;;;;;;26.13;19.50;100288.22;5093962;28;19916;-69
2022/05/25 07:34:03;;;;;;;;;;;;;;;25.88;19.73;100286.59;5093981;28;19920;-70
2022/05/25 07:36:28;;;;;;;;;;;;;;;25.95;19.75;100284.34;5093833;28;19961;-70
2022/05/25 07:38:54;;;;;;;;;;;;;;;25.88;19.69;100289.31;5075827;28;19916;-69
2022/05/25 07:41:19;;;;;;;;;;;;;;;25.79;19.96;100288.34;5093979;28;19920;-70
2022/05/25 07:43:45;;;;;;;;;;;;;;;25.84;19.93;100291.03;5094426;28;19916;-70
2022/05/25 07:46:10;;;;;;;;;;;;;;;25.89;19.90;100285.50;5093776;28;19923;-69
2022/05/25 07:48:36;;;;;;;;;;;;;;;25.85;19.74;100284.44;5093633;28;20006;-69
2022/05/25 07:51:01;;;;;;;;;;;;;;;25.79;19.86;100275.47;5093302;28;19942;-69
2022/05/25 07:56:10;;;;;;;;;;;;;;;25.90;19.70;100275.34;5094485;28;19923;-69
2022/05/25 07:58:36;;;;;;;;;;;;;;;25.86;19.59;100272.38;5093646;28;19998;-69
2022/05/25 08:01:05;;;;;;;;;;;;;;;26.01;19.32;100271.41;5094539;28;19923;-69
2022/05/25 08:06:17;;;;;;;;;;;;;;;25.99;19.57;100268.97;5079500;28;20015;-69
2022/05/25 08:08:42;;;;;;;;;;;;;;;25.90;19.62;100267.94;5095008;28;19948;-71
2022/05/25 08:11:09;;;;;;;;;;;;;;;25.96;19.24;100266.81;5075304;28;19919;-71
2022/05/25 08:13:35;;;;;;;;;;;;;;;26.03;19.35;100271.94;5093647;28;19916;-68
2022/05/25 08:16:01;;;;;;;;;;;;;;;26.08;19.08;100271.03;5075127;28;20362;-68
2022/05/25 08:18:26;;;;;;;;;;;;;;;25.99;19.39;100268.97;5093298;28;19923;-69
2022/05/25 08:20:51;;;;;;;;;;;;;;;26.07;19.11;100269.41;5094189;28;19920;-69
2022/05/25 08:23:17;;;;;;;;;;;;;;;26.03;19.16;100270.00;5076255;28;20373;-69
2022/05/25 08:25:42;;;;;;;;;;;;;;;25.95;19.46;100269.84;5093438;28;19943;-69
2022/05/25 08:28:07;;;;;;;;;;;;;;;26.10;19.15;100272.38;5093385;28;20275;-69
2022/05/25 08:30:33;;;;;;;;;;;;;;;26.43;18.62;100273.25;5093419;28;20372;-69
2022/05/25 08:32:58;;;;;;;;;;;;;;;26.67;18.31;100275.13;5094457;28;19955;-70
2022/05/25 08:35:24;;;;;;;;;;;;;;;26.75;18.33;100266.25;5092965;28;20007;-69
2022/05/25 08:37:49;;;;;;;;;;;;;;;26.75;18.31;100274.47;5093150;28;19916;-68
2022/05/25 08:40:17;;;;;;;;;;;;;;;26.70;18.47;100263.59;5093818;28;19920;-69
2022/05/25 08:43:01;;;;;;;;;;;;;;;26.67;18.19;100261.44;5075398;28;20374;-68
2022/05/25 08:45:28;;;;;;;;;;;;;;;26.78;18.24;100262.88;5092833;28;20366;-69
2022/05/25 08:47:57;;;;;;;;;;;;;;;26.74;18.22;100256.38;5075193;28;20049;-70
2022/05/25 08:50:22;;;;;;;;;;;;;;;26.72;18.34;100263.28;5092967;28;19927;-69
2022/05/25 08:52:47;;;;;;;;;;;;;;;26.69;18.29;100258.41;5093422;28;19920;-70
2022/05/25 08:55:16;;;;;;;;;;;;;;;26.72;18.34;100244.91;5092716;28;19977;-70
2022/05/25 08:57:51;;;;;;;;;;;;;;;26.51;18.43;100240.81;5075213;28;19916;-68
2022/05/25 09:00:17;;;;;;;;;;;;;;;26.53;18.48;100233.94;5092996;28;20366;-67
2022/05/25 09:02:46;;;;;;;;;;;;;;;26.76;18.09;100240.44;5096608;28;19920;-68
2022/05/25 09:05:16;;;;;;;;;;;;;;;26.64;18.42;100233.81;5096743;28;19942;-69
2022/05/25 09:07:44;;;;;;;;;;;;;;;26.39;18.55;100233.06;5079391;28;19999;-68
2022/05/25 09:10:10;;;;;;;;;;;;;;;26.57;18.44;100220.44;5096687;28;20003;-69
2022/05/25 09:12:39;;;;;;;;;;;;;;;26.07;19.08;100225.59;5078782;28;20017;-69
2022/05/25 09:15:09;;;;;;;;;;;;;;;26.46;18.52;100219.81;5078932;28;19939;-70
2022/05/25 09:17:43;;;;;;;;;;;;;;;26.56;18.40;100221.56;5097155;28;19916;-68
2022/05/25 09:20:09;;;;;;;;;;;;;;;26.34;18.78;100217.53;5096910;28;19963;-69
2022/05/25 09:22:35;;;;;;;;;;;;;;;26.66;18.36;100212.38;5096816;28;20029;-70
2022/05/25 09:25:00;;;;;;;;;;;;;;;26.51;18.60;100207.94;5096323;28;20015;-69
2022/05/25 09:27:44;;;;;;;;;;;;;;;26.62;18.43;100214.91;5078380;28;20016;-69
2022/05/25 09:30:10;;;;;;;;;;;;;;;26.50;18.71;100218.09;5078032;28;19916;-69
2022/05/25 09:32:50;;;;;;;;;;;;;;;26.76;18.43;100199.31;5097030;28;19964;-68
2022/05/25 09:35:18;;;;;;;;;;;;;;;26.57;18.80;100201.28;5096801;28;19986;-68
2022/05/25 09:37:50;;;;;;;;;;;;;;;26.25;18.80;100205.63;5095991;28;19923;-68
2022/05/25 09:40:15;;;;;;;;;;;;;;;26.66;18.51;100202.22;5095931;28;20436;-69
2022/05/25 09:42:40;;;;;;;;;;;;;;;26.78;18.34;100201.75;5096427;28;19920;-68
2022/05/25 09:45:09;;;;;;;;;;;;;;;26.69;18.35;100193.41;5095801;28;19966;-69
2022/05/25 09:47:41;;;;;;;;;;;;;;;26.96;17.88;100186.38;5096357;28;20370;-68
2022/05/25 09:50:07;;;;;;;;;;;;;;;26.85;18.26;100199.44;5096226;28;19919;-69
2022/05/25 09:52:38;;;;;;;;;;;;;;;26.89;17.88;100207.88;5096405;28;19928;-69
2022/05/25 09:55:04;;;;;;;;;;;;;;;26.60;18.23;100189.72;5078516;28;20410;-68
2022/05/25 09:57:31;;;;;;;;;;;;;;;26.95;17.78;100179.25;5077967;28;19926;-69
2022/05/25 10:00:04;;;;;;;;;;;;;;;26.62;17.94;100182.03;5078364;28;19919;-70
2022/05/25 10:02:36;;;;;;;;;;;;;;;26.52;18.26;100179.44;5096386;28;19952;-69
2022/05/25 10:05:10;;;;;;;;;;;;;;;26.73;17.88;100178.00;5077749;28;19955;-69
2022/05/25 10:07:36;;;;;;;;;;;;;;;27.14;17.18;100182.72;5096344;28;19995;-69
2022/05/25 10:10:06;;;;;;;;;;;;;;;26.96;17.59;100175.41;5096125;28;19987;-68
2022/05/25 10:12:32;;;;;;;;;;;;;;;26.83;17.68;100166.03;5077397;28;19916;-70
2022/05/25 10:15:07;;;;;;;;;;;;;;;26.99;17.32;100180.25;5095286;28;19938;-69
2022/05/25 10:17:36;;;;;;;;;;;;;;;27.10;17.24;100165.25;5077339;28;19927;-70
2022/05/25 10:20:03;;;;;;;;;;;;;;;27.20;17.04;100155.19;5095319;28;19922;-70
2022/05/25 10:22:41;;;;;;;;;;;;;;;27.29;16.97;100156.16;5077427;28;19923;-69
2022/05/25 10:25:08;;;;;;;;;;;;;;;27.30;16.83;100152.28;5076856;28;19924;-69
2022/05/25 10:27:40;;;;;;;;;;;;;;;27.23;16.96;100166.38;5095697;28;20363;-70
2022/05/25 10:38:28;;;;;;;;;;;;;;;27.21;16.77;100143.91;5080061;28;19923;-71
2022/05/25 10:40:54;;;;;;;;;;;;;;;27.30;16.81;100153.09;5077046;28;19955;-70
2022/05/25 10:43:23;;;;;;;;;;;;;;;27.19;16.75;100137.13;5095156;28;20321;-70
2022/05/25 10:45:51;;;;;;;;;;;;;;;27.37;16.59;100138.16;5094585;28;19920;-70
2022/05/25 10:48:43;;;;;;;;;;;;;;;27.24;16.91;100143.31;5077311;28;19920;-70
2022/05/25 10:51:09;;;;;;;;;;;;;;;27.20;16.86;100146.97;5012632;28;19953;-70
2022/05/25 10:53:37;;;;;;;;;;;;;;;27.08;16.98;100145.56;4996298;28;19928;-69
2022/05/25 10:56:08;;;;;;;;;;;;;;;27.20;16.86;100141.47;5012586;28;20400;-70
2022/05/25 10:58:52;;;;;;;;;;;;;;;27.25;16.95;100130.41;5012195;28;19921;-70
2022/05/25 11:01:18;;;;;;;;;;;;;;;27.26;16.71;100134.78;5012352;28;20338;-69
2022/05/25 11:03:49;;;;;;;;;;;;;;;27.33;16.68;100140.69;5012335;28;20033;-69
2022/05/25 11:06:30;;;;;;;;;;;;;;;27.16;16.67;100125.66;5012388;28;19918;-69
2022/05/25 11:09:07;;;;;;;;;;;;;;;27.28;16.35;100121.59;5012378;28;19924;-69
2022/05/25 11:11:42;;;;;;;;;;;;;;;27.27;16.58;100122.66;5012214;28;19922;-69
2022/05/25 11:14:26;;;;;;;;;;;;;;;27.18;16.24;100122.56;5012188;28;19918;-69
2022/05/25 11:16:55;;;;;;;;;;;;;;;26.95;16.70;100124.41;5012213;28;19988;-69
2022/05/25 11:19:23;;;;;;;;;;;;;;;27.20;16.46;100125.03;5012202;28;19921;-69
2022/05/25 11:22:00;;;;;;;;;;;;;;;27.32;16.39;100122.59;5012249;28;19921;-69
2022/05/25 11:24:38;;;;;;;;;;;;;;;27.15;16.61;100135.00;5011385;28;19933;-68
2022/05/25 11:27:03;;;;;;;;;;;;;;;26.89;17.00;100117.38;5020307;28;19961;-68
2022/05/25 11:29:31;;;;;;;;;;;;;;;26.97;16.65;100113.94;5074164;28;20362;-68
2022/05/25 11:32:12;;;;;;;;;;;;;;;27.02;16.50;100111.09;5073962;28;19917;-68
2022/05/25 11:34:57;;;;;;;;;;;;;;;27.04;16.46;100119.84;5073582;28;19927;-68
2022/05/25 11:37:28;;;;;;;;;;;;;;;26.85;16.87;100114.44;5072803;28;19966;-68
2022/05/25 11:39:54;;;;;;;;;;;;;;;26.70;17.06;100115.56;5073449;28;20370;-68
2022/05/25 11:42:48;;;;;;;;;;;;;;;26.74;17.21;100113.03;5073557;28;19916;-67
2022/05/25 11:45:32;;;;;;;;;;;;;;;26.66;17.39;100119.19;4991660;28;20442;-69
2022/05/25 11:47:57;;;;;;;;;;;;;;;26.85;17.12;100108.97;4991755;28;19921;-68
2022/05/25 11:50:28;;;;;;;;;;;;;;;26.86;17.00;100102.38;4992436;28;19924;-68
2022/05/25 11:52:54;;;;;;;;;;;;;;;26.88;17.21;100097.41;4992250;28;19918;-68
2022/05/25 11:55:26;;;;;;;;;;;;;;;26.89;17.08;100103.69;4993226;28;19948;-68
2022/05/25 11:58:07;;;;;;;;;;;;;;;26.81;17.36;100090.72;4977349;28;19918;-70
2022/05/25 12:00:47;;;;;;;;;;;;;;;26.78;17.25;100097.59;4992571;28;19936;-68
2022/05/25 12:03:20;;;;;;;;;;;;;;;26.87;17.16;100094.94;4992913;28;19922;-68
2022/05/25 12:05:51;;;;;;;;;;;;;;;26.67;17.46;100096.97;4976492;28;20375;-68
2022/05/25 12:08:19;;;;;;;;;;;;;;;26.78;17.17;100106.63;4978861;28;19918;-68
2022/05/25 12:10:45;;;;;;;;;;;;;;;26.73;17.09;100090.28;4999515;28;20420;-68
2022/05/25 12:13:28;;;;;;;;;;;;;;;26.58;17.15;100088.63;4984650;28;19918;-67
2022/05/25 12:15:55;;;;;;;;;;;;;;;26.66;17.22;100100.81;5000144;28;19951;-68
2022/05/25 12:18:20;;;;;;;;;;;;;;;26.69;17.33;100092.00;4991791;28;19947;-68
2022/05/25 12:21:09;;;;;;;;;;;;;;;26.66;17.43;100089.84;5016963;28;19926;-68
2022/05/25 12:23:39;;;;;;;;;;;;;;;26.75;17.08;100079.00;5079781;28;19939;-67
2022/05/25 12:26:14;;;;;;;;;;;;;;;26.81;16.98;100074.25;5079521;28;19923;-67
2022/05/25 12:28:40;;;;;;;;;;;;;;;26.78;17.07;100076.47;5076915;28;19917;-68
2022/05/25 12:31:07;;;;;;;;;;;;;;;26.84;16.91;100084.59;5079569;28;20394;-67
2022/05/25 12:33:32;;;;;;;;;;;;;;;26.78;17.17;100081.94;5076340;28;19962;-69
2022/05/25 12:35:58;;;;;;;;;;;;;;;26.83;17.13;100086.53;5077655;28;19924;-69
2022/05/25 12:38:27;;;;;;;;;;;;;;;26.72;17.31;100080.44;5075989;28;19939;-69
2022/05/25 12:40:52;;;;;;;;;;;;;;;26.74;17.21;100075.47;5072975;28;19960;-70
2022/05/25 12:43:37;;;;;;;;;;;;;;;26.65;17.33;100069.06;5073688;28;19962;-70
2022/05/25 12:48:53;;;;;;;;;;;;;;;26.59;17.44;100070.22;5073666;28;20413;-70
2022/05/25 12:51:36;;;;;;;;;;;;;;;26.78;17.19;100064.69;5073228;28;20377;-69
2022/05/25 12:54:05;;;;;;;;;;;;;;;26.70;17.29;100074.44;5073237;28;19916;-70
2022/05/25 12:56:32;;;;;;;;;;;;;;;26.78;17.25;100070.19;5073393;28;20366;-69
2022/05/25 12:59:00;;;;;;;;;;;;;;;26.86;17.00;100079.63;5072103;28;19921;-70
2022/05/25 13:01:28;;;;;;;;;;;;;;;26.86;17.01;100074.16;5073483;28;20310;-69
2022/05/25 13:03:58;;;;;;;;;;;;;;;26.86;16.90;100066.72;5073224;28;19920;-70
2022/05/25 13:06:30;;;;;;;;;;;;;;;26.85;16.93;100069.78;5073815;28;19917;-69
2022/05/25 13:08:55;;;;;;;;;;;;;;;26.82;16.82;100060.25;5073333;28;20315;-69